createdAt,value
2022-08-30T00:01:02.842Z,16.50
2022-08-30T00:03:32.042Z,16.50
2022-08-30T00:05:58.908Z,16.40
2022-08-30T00:08:25.615Z,16.40
2022-08-30T00:10:52.687Z,16.30
2022-08-30T00:13:20.261Z,16.30
2022-08-30T00:15:48.527Z,16.30
2022-08-30T00:18:18.045Z,16.30
2022-08-30T00:20:46.204Z,16.30
2022-08-30T00:23:13.699Z,16.20
2022-08-30T00:25:41.582Z,16.20
2022-08-30T00:28:09.671Z,16.20
2022-08-30T00:30:36.652Z,16.10
2022-08-30T00:33:03.945Z,16.10
2022-08-30T00:35:31.055Z,16.10
2022-08-30T00:37:58.057Z,16.00
2022-08-30T00:40:27.716Z,16.00
2022-08-30T00:42:59.315Z,16.00
2022-08-30T00:45:33.026Z,16.00
2022-08-30T00:48:00.563Z,16.00
2022-08-30T00:50:32.537Z,15.90
2022-08-30T00:53:02.585Z,15.90
2022-08-30T00:55:29.614Z,15.90
2022-08-30T00:58:00.813Z,15.90
2022-08-30T01:00:29.377Z,15.90
2022-08-30T01:02:56.246Z,15.80
2022-08-30T01:05:23.907Z,15.80
2022-08-30T01:07:51.003Z,15.80
2022-08-30T01:10:18.443Z,15.80
2022-08-30T01:12:46.276Z,15.80
2022-08-30T01:15:14.911Z,15.70
2022-08-30T01:17:47.469Z,15.70
2022-08-30T01:20:21.798Z,15.70
2022-08-30T01:22:51.199Z,15.70
2022-08-30T01:25:23.503Z,15.70
2022-08-30T01:28:05.571Z,15.70
2022-08-30T01:30:33.506Z,15.70
2022-08-30T01:33:03.499Z,15.60
2022-08-30T01:35:38.367Z,15.60
2022-08-30T01:38:05.368Z,15.60
2022-08-30T01:40:32.152Z,15.60
2022-08-30T01:42:58.957Z,15.60
2022-08-30T01:45:25.679Z,15.50
2022-08-30T01:47:52.412Z,15.50
2022-08-30T01:50:19.114Z,15.50
2022-08-30T01:52:45.792Z,15.50
2022-08-30T01:55:12.515Z,15.50
2022-08-30T01:57:39.282Z,15.40
2022-08-30T02:00:08.347Z,15.40
2022-08-30T02:02:38.693Z,15.40
2022-08-30T02:05:06.309Z,15.40
2022-08-30T02:07:33.190Z,15.40
2022-08-30T02:09:59.891Z,15.40
2022-08-30T02:12:26.568Z,15.30
2022-08-30T02:14:53.328Z,15.30
2022-08-30T02:17:20.055Z,15.30
2022-08-30T02:19:47.081Z,15.30
2022-08-30T02:22:13.862Z,15.30
2022-08-30T02:24:40.573Z,15.30
2022-08-30T02:27:07.550Z,15.20
2022-08-30T02:29:35.189Z,15.20
2022-08-30T02:32:01.977Z,15.20
2022-08-30T02:34:28.683Z,15.20
2022-08-30T02:36:55.411Z,15.20
2022-08-30T02:39:22.245Z,15.20
2022-08-30T02:41:49.161Z,15.20
2022-08-30T02:44:15.925Z,15.10
2022-08-30T02:46:42.797Z,15.10
2022-08-30T02:49:32.151Z,15.10
2022-08-30T02:51:56.188Z,15.10
2022-08-30T02:54:22.982Z,15.10
2022-08-30T02:56:50.917Z,15.10
2022-08-30T02:59:18.335Z,15.10
2022-08-30T03:01:45.296Z,15.00
2022-08-30T03:04:12.076Z,15.00
2022-08-30T03:06:38.852Z,15.00
2022-08-30T03:09:05.672Z,15.00
2022-08-30T03:11:32.557Z,15.00
2022-08-30T03:13:59.493Z,15.00
2022-08-30T03:16:26.509Z,14.90
2022-08-30T03:18:53.234Z,14.90
2022-08-30T03:21:19.945Z,14.90
2022-08-30T03:23:46.613Z,14.80
2022-08-30T03:26:14.823Z,14.80
2022-08-30T03:28:43.188Z,14.80
2022-08-30T03:31:10.394Z,14.70
2022-08-30T03:33:40.218Z,14.70
2022-08-30T03:36:08.787Z,14.70
2022-08-30T03:38:35.515Z,14.70
2022-08-30T03:41:02.555Z,14.70
2022-08-30T03:43:29.489Z,14.70
2022-08-30T03:45:56.666Z,14.60
2022-08-30T03:48:23.478Z,14.60
2022-08-30T03:50:50.139Z,14.60
2022-08-30T03:53:17.082Z,14.60
2022-08-30T03:55:43.956Z,14.60
2022-08-30T03:58:10.929Z,14.50
2022-08-30T04:00:38.045Z,14.50
2022-08-30T04:03:05.164Z,14.50
2022-08-30T04:05:31.887Z,14.50
2022-08-30T04:07:58.596Z,14.50
2022-08-30T04:10:26.419Z,14.40
2022-08-30T04:12:53.108Z,14.50
2022-08-30T04:15:20.458Z,14.40
2022-08-30T04:17:48.088Z,14.40
2022-08-30T04:20:16.327Z,14.40
2022-08-30T04:22:43.024Z,14.40
2022-08-30T04:25:15.842Z,14.40
2022-08-30T04:27:43.901Z,14.40
2022-08-30T04:30:12.065Z,14.40
2022-08-30T04:32:38.772Z,14.30
2022-08-30T04:35:06.216Z,14.40
2022-08-30T04:37:32.938Z,14.40
2022-08-30T04:40:03.244Z,14.40
2022-08-30T04:42:37.785Z,14.40
2022-08-30T04:45:11.044Z,14.30
2022-08-30T04:47:39.140Z,14.30
2022-08-30T04:50:08.530Z,14.30
2022-08-30T04:52:35.247Z,14.30
2022-08-30T04:55:02.004Z,14.20
2022-08-30T04:57:29.208Z,14.20
2022-08-30T04:59:56.060Z,14.20
2022-08-30T05:02:23.469Z,14.30
2022-08-30T05:05:09.030Z,14.30
2022-08-30T05:07:35.983Z,14.20
2022-08-30T05:10:07.831Z,14.30
2022-08-30T05:12:37.395Z,14.30
2022-08-30T05:15:04.683Z,14.30
2022-08-30T05:17:32.472Z,14.30
2022-08-30T05:20:01.473Z,14.30
2022-08-30T05:22:28.312Z,14.30
2022-08-30T05:24:54.983Z,14.30
2022-08-30T05:27:21.705Z,14.30
2022-08-30T05:29:48.425Z,14.30
2022-08-30T05:32:15.113Z,14.30
2022-08-30T05:34:41.832Z,14.30
2022-08-30T05:37:08.616Z,14.30
2022-08-30T05:39:51.440Z,14.40
2022-08-30T05:42:19.164Z,14.40
2022-08-30T05:44:46.138Z,14.40
2022-08-30T05:47:12.833Z,14.40
2022-08-30T05:49:39.546Z,14.40
2022-08-30T05:52:06.862Z,14.40
2022-08-30T05:54:33.574Z,14.40
2022-08-30T05:57:00.293Z,14.50
2022-08-30T05:59:27.019Z,14.50
2022-08-30T06:01:57.920Z,14.50
2022-08-30T06:04:24.883Z,14.50
2022-08-30T06:06:51.828Z,14.60
2022-08-30T06:09:19.964Z,14.60
2022-08-30T06:11:47.335Z,14.60
2022-08-30T06:14:14.537Z,14.70
2022-08-30T06:16:44.003Z,14.70
2022-08-30T06:19:10.936Z,14.80
2022-08-30T06:21:40.481Z,14.80
2022-08-30T06:24:09.228Z,14.90
2022-08-30T06:26:41.763Z,14.90
2022-08-30T06:29:12.766Z,15.00
2022-08-30T06:31:39.687Z,15.00
2022-08-30T06:34:06.808Z,15.10
2022-08-30T06:36:34.215Z,15.20
2022-08-30T06:39:00.968Z,15.30
2022-08-30T06:41:30.418Z,15.30
2022-08-30T06:43:59.024Z,15.50
2022-08-30T06:46:33.175Z,15.60
2022-08-30T06:49:01.394Z,15.70
2022-08-30T06:51:35.146Z,15.80
2022-08-30T06:54:03.251Z,15.90
2022-08-30T06:56:31.111Z,16.00
2022-08-30T06:58:58.322Z,16.10
2022-08-30T07:01:27.565Z,16.20
2022-08-30T07:03:55.677Z,16.30
2022-08-30T07:06:24.019Z,16.30
2022-08-30T07:08:54.813Z,16.40
2022-08-30T07:11:35.659Z,16.40
2022-08-30T07:14:03.436Z,16.50
2022-08-30T07:16:30.314Z,16.60
2022-08-30T07:18:58.607Z,16.70
2022-08-30T07:21:28.280Z,16.70
2022-08-30T07:23:57.336Z,16.80
2022-08-30T07:26:28.283Z,16.90
2022-08-30T07:28:56.487Z,16.90
2022-08-30T07:31:24.400Z,17.10
2022-08-30T07:33:52.208Z,17.10
2022-08-30T07:36:19.016Z,17.20
2022-08-30T07:38:49.172Z,17.30
2022-08-30T07:41:17.943Z,17.40
2022-08-30T07:43:44.827Z,17.50
2022-08-30T07:46:11.578Z,17.60
2022-08-30T07:48:38.504Z,17.70
2022-08-30T07:51:16.683Z,17.70
2022-08-30T07:53:43.853Z,17.80
2022-08-30T07:56:10.789Z,18.00
2022-08-30T07:58:38.017Z,18.00
2022-08-30T08:01:06.536Z,18.10
2022-08-30T08:03:33.757Z,18.20
2022-08-30T08:06:03.472Z,18.30
2022-08-30T08:08:30.652Z,18.40
2022-08-30T08:10:58.262Z,18.40
2022-08-30T08:13:27.316Z,18.50
2022-08-30T08:15:55.421Z,18.60
2022-08-30T08:18:22.147Z,18.70
2022-08-30T08:20:48.831Z,18.80
2022-08-30T08:23:16.288Z,18.80
2022-08-30T08:25:43.402Z,18.90
2022-08-30T08:28:10.154Z,19.00
2022-08-30T08:30:38.006Z,19.10
2022-08-30T08:33:05.455Z,19.20
2022-08-30T08:35:33.152Z,19.30
2022-08-30T08:37:59.928Z,19.40
2022-08-30T08:40:27.690Z,19.40
2022-08-30T08:43:08.172Z,19.50
2022-08-30T08:46:04.125Z,19.50
2022-08-30T08:48:59.619Z,19.60
2022-08-30T08:51:52.423Z,19.70
2022-08-30T08:54:34.031Z,19.90
2022-08-30T08:57:00.979Z,19.90
2022-08-30T08:59:28.293Z,20.00
2022-08-30T09:01:58.941Z,20.10
2022-08-30T09:04:33.738Z,20.20
2022-08-30T09:07:14.417Z,20.30
2022-08-30T09:09:43.044Z,20.40
2022-08-30T09:12:11.956Z,20.40
2022-08-30T09:14:46.619Z,20.60
2022-08-30T09:17:18.655Z,20.70
2022-08-30T09:19:56.609Z,20.90
2022-08-30T09:22:32.213Z,21.10
2022-08-30T09:25:25.253Z,21.50
2022-08-30T09:27:53.877Z,21.80
2022-08-30T09:30:29.020Z,22.00
2022-08-30T09:32:57.447Z,22.20
2022-08-30T09:35:34.617Z,22.40
2022-08-30T09:38:18.158Z,22.60
2022-08-30T09:40:48.267Z,22.90
2022-08-30T09:43:17.972Z,23.10
2022-08-30T09:45:49.667Z,23.30
2022-08-30T09:48:30.955Z,23.50
2022-08-30T09:51:23.360Z,23.60
2022-08-30T09:54:19.002Z,23.80
2022-08-30T09:57:12.716Z,24.00
2022-08-30T10:00:16.680Z,24.00
2022-08-30T10:02:52.085Z,24.10
2022-08-30T10:05:50.729Z,24.30
2022-08-30T10:08:45.763Z,24.40
2022-08-30T10:11:24.587Z,24.40
2022-08-30T10:14:19.884Z,24.70
2022-08-30T10:17:11.022Z,24.80
2022-08-30T10:20:05.911Z,24.90
2022-08-30T10:23:06.149Z,25.00
2022-08-30T10:25:38.526Z,25.00
2022-08-30T10:28:30.057Z,25.20
2022-08-30T10:31:02.957Z,25.20
2022-08-30T10:33:40.203Z,25.30
2022-08-30T10:36:11.511Z,25.30
2022-08-30T10:38:41.010Z,25.40
2022-08-30T10:41:19.707Z,25.20
2022-08-30T10:44:11.417Z,25.10
2022-08-30T10:47:01.655Z,25.20
2022-08-30T10:49:40.445Z,25.60
2022-08-30T10:52:36.148Z,25.70
2022-08-30T10:55:11.992Z,26.00
2022-08-30T10:57:38.884Z,26.10
2022-08-30T11:00:22.588Z,26.30
2022-08-30T11:03:27.677Z,26.30
2022-08-30T11:06:10.054Z,26.40
2022-08-30T11:09:03.619Z,26.30
2022-08-30T11:11:58.540Z,26.50
2022-08-30T11:14:25.908Z,26.60
2022-08-30T11:16:56.664Z,26.50
2022-08-30T11:19:39.602Z,26.70
2022-08-30T11:22:22.901Z,26.80
2022-08-30T11:25:00.424Z,26.90
2022-08-30T11:27:46.294Z,27.20
2022-08-30T11:30:39.572Z,27.20
2022-08-30T11:33:39.612Z,27.10
2022-08-30T11:36:06.562Z,27.00
2022-08-30T11:38:33.551Z,26.90
2022-08-30T11:41:28.885Z,26.90
2022-08-30T11:44:14.878Z,26.80
2022-08-30T11:46:42.435Z,26.60
2022-08-30T11:49:15.045Z,26.60
2022-08-30T11:52:26.395Z,26.60
2022-08-30T11:55:06.937Z,26.40
2022-08-30T11:57:49.829Z,26.30
2022-08-30T12:00:39.694Z,26.20
2022-08-30T12:03:16.602Z,26.30
2022-08-30T12:05:44.222Z,26.20
2022-08-30T12:08:20.170Z,26.20
2022-08-30T12:10:53.894Z,26.30
2022-08-30T12:13:36.862Z,26.30
2022-08-30T12:16:21.687Z,26.30
2022-08-30T12:19:10.101Z,26.40
2022-08-30T12:21:44.860Z,26.40
2022-08-30T12:24:26.210Z,26.30
2022-08-30T12:26:54.026Z,26.30
2022-08-30T12:29:24.568Z,26.30
2022-08-30T12:32:05.310Z,26.30
2022-08-30T12:34:41.480Z,26.40
2022-08-30T12:37:30.810Z,26.50
2022-08-30T12:40:19.346Z,26.40
2022-08-30T12:42:52.804Z,26.30
2022-08-30T12:45:21.951Z,26.20
2022-08-30T12:47:53.382Z,26.10
2022-08-30T12:50:35.403Z,26.20
2022-08-30T12:53:14.099Z,26.20
2022-08-30T12:55:56.532Z,26.20
2022-08-30T12:58:46.624Z,26.20
2022-08-30T13:01:16.120Z,26.20
2022-08-30T13:04:11.129Z,26.20
2022-08-30T13:07:01.253Z,26.20
2022-08-30T13:09:35.073Z,26.20
2022-08-30T13:12:07.803Z,26.20
2022-08-30T13:14:43.518Z,26.00
2022-08-30T13:17:20.944Z,25.90
2022-08-30T13:20:24.605Z,26.00
2022-08-30T13:23:10.823Z,26.00
2022-08-30T13:25:39.051Z,26.10
2022-08-30T13:28:07.342Z,26.10
2022-08-30T13:30:34.453Z,26.10
2022-08-30T13:33:02.325Z,26.10
2022-08-30T13:35:33.190Z,26.00
2022-08-30T13:38:01.680Z,26.00
2022-08-30T13:40:28.466Z,26.10
2022-08-30T13:42:55.346Z,26.00
2022-08-30T13:48:11.284Z,26.00
2022-08-30T13:50:38.859Z,26.10
2022-08-30T13:53:05.772Z,26.00
2022-08-30T13:55:33.642Z,25.90
2022-08-30T13:58:00.549Z,25.80
2022-08-30T14:00:27.981Z,25.80
2022-08-30T14:02:57.685Z,25.80
2022-08-30T14:05:48.720Z,25.70
2022-08-30T14:08:46.392Z,25.70
2022-08-30T14:11:18.970Z,25.80
2022-08-30T14:16:36.180Z,25.80
2022-08-30T14:19:04.406Z,25.70
2022-08-30T14:21:32.958Z,25.60
2022-08-30T14:24:00.037Z,25.60
2022-08-30T14:26:39.379Z,25.50
2022-08-30T14:29:09.811Z,25.40
2022-08-30T14:31:38.697Z,25.40
2022-08-30T14:34:06.493Z,25.30
2022-08-30T14:36:34.818Z,25.20
2022-08-30T14:39:02.940Z,25.10
2022-08-30T14:41:37.180Z,25.00
2022-08-30T14:44:07.115Z,25.00
2022-08-30T14:46:35.371Z,25.00
2022-08-30T14:49:02.725Z,25.00
2022-08-30T14:51:32.833Z,24.80
2022-08-30T14:54:00.942Z,24.80
2022-08-30T14:56:27.643Z,24.80
2022-08-30T14:59:00.386Z,24.70
2022-08-30T15:01:28.535Z,24.70
2022-08-30T15:03:55.792Z,24.70
2022-08-30T15:06:23.075Z,24.60
2022-08-30T15:08:54.066Z,24.50
2022-08-30T15:11:22.933Z,24.50
2022-08-30T15:13:52.909Z,24.50
2022-08-30T15:16:26.659Z,24.50
2022-08-30T15:18:54.503Z,24.60
2022-08-30T15:21:26.731Z,24.60
2022-08-30T15:23:54.612Z,24.50
2022-08-30T15:26:21.910Z,24.40
2022-08-30T15:28:49.434Z,24.40
2022-08-30T15:31:18.682Z,24.40
2022-08-30T15:33:45.475Z,24.40
2022-08-30T15:36:13.042Z,24.30
2022-08-30T15:38:42.228Z,24.40
2022-08-30T15:41:12.351Z,24.30
2022-08-30T15:43:40.916Z,24.30
2022-08-30T15:46:34.447Z,24.20
2022-08-30T15:49:05.495Z,24.10
2022-08-30T15:51:41.565Z,24.00
2022-08-30T15:54:11.461Z,24.00
2022-08-30T15:56:39.981Z,24.00
2022-08-30T15:59:09.036Z,24.00
2022-08-30T16:01:36.773Z,24.00
2022-08-30T16:04:04.252Z,23.90
2022-08-30T16:06:35.168Z,23.90
2022-08-30T16:09:03.893Z,23.80
2022-08-30T16:11:31.659Z,23.70
2022-08-30T16:13:59.096Z,23.70
2022-08-30T16:16:26.386Z,23.60
2022-08-30T16:18:55.338Z,23.70
2022-08-30T16:21:32.989Z,23.70
2022-08-30T16:24:01.782Z,23.60
2022-08-30T16:26:30.204Z,23.60
2022-08-30T16:28:57.759Z,23.50
2022-08-30T16:31:27.005Z,23.50
2022-08-30T16:33:55.353Z,23.50
2022-08-30T16:36:28.432Z,23.40
2022-08-30T16:38:58.359Z,23.40
2022-08-30T16:41:25.865Z,23.30
2022-08-30T16:43:53.883Z,23.30
2022-08-30T16:46:26.968Z,23.20
2022-08-30T16:48:57.011Z,23.20
2022-08-30T16:51:26.366Z,23.20
2022-08-30T16:53:58.732Z,23.20
2022-08-30T16:56:28.013Z,23.10
2022-08-30T16:59:01.789Z,23.10
2022-08-30T17:01:31.518Z,23.10
2022-08-30T17:03:58.758Z,23.00
2022-08-30T17:06:26.644Z,23.00
2022-08-30T17:08:55.831Z,22.90
2022-08-30T17:11:29.431Z,22.90
2022-08-30T17:13:59.718Z,22.80
2022-08-30T17:16:30.149Z,22.70
2022-08-30T17:18:59.894Z,22.70
2022-08-30T17:21:28.899Z,22.60
2022-08-30T17:24:01.523Z,22.50
2022-08-30T17:26:32.348Z,22.50
2022-08-30T17:29:00.048Z,22.50
2022-08-30T17:31:30.145Z,22.50
2022-08-30T17:34:03.237Z,22.40
2022-08-30T17:36:35.523Z,22.30
2022-08-30T17:39:11.378Z,22.30
2022-08-30T17:41:41.136Z,22.20
2022-08-30T17:44:16.272Z,22.10
2022-08-30T17:46:43.077Z,22.10
2022-08-30T17:49:10.543Z,22.00
2022-08-30T17:51:40.849Z,22.00
2022-08-30T17:54:09.394Z,21.90
2022-08-30T17:56:36.274Z,21.80
2022-08-30T17:59:05.413Z,21.80
2022-08-30T18:01:32.383Z,21.70
2022-08-30T18:04:02.117Z,21.70
2022-08-30T18:06:34.395Z,21.60
2022-08-30T18:09:02.548Z,21.60
2022-08-30T18:11:29.460Z,21.50
2022-08-30T18:13:56.298Z,21.50
2022-08-30T18:16:26.616Z,21.40
2022-08-30T18:18:57.316Z,21.40
2022-08-30T18:21:25.308Z,21.40
2022-08-30T18:23:53.461Z,21.30
2022-08-30T18:26:24.155Z,21.20
2022-08-30T18:28:51.632Z,21.10
2022-08-30T18:31:18.579Z,21.10
2022-08-30T18:33:46.859Z,21.00
2022-08-30T18:36:14.009Z,21.00
2022-08-30T18:38:42.528Z,20.90
2022-08-30T18:41:13.784Z,20.90
2022-08-30T18:43:41.705Z,20.80
2022-08-30T18:46:12.604Z,20.70
2022-08-30T18:48:40.389Z,20.70
2022-08-30T18:51:13.574Z,20.60
2022-08-30T18:53:40.994Z,20.60
2022-08-30T18:56:09.282Z,20.50
2022-08-30T18:58:36.747Z,20.50
2022-08-30T19:01:04.225Z,20.50
2022-08-30T19:03:33.037Z,20.40
2022-08-30T19:06:08.628Z,20.30
2022-08-30T19:08:36.937Z,20.30
2022-08-30T19:11:04.859Z,20.20
2022-08-30T19:13:35.278Z,20.10
2022-08-30T19:16:03.691Z,20.10
2022-08-30T19:18:30.524Z,20.10
2022-08-30T19:20:57.449Z,20.00
2022-08-30T19:23:27.703Z,20.00
2022-08-30T19:26:00.902Z,20.00
2022-08-30T19:28:28.321Z,20.00
2022-08-30T19:30:55.173Z,20.00
2022-08-30T19:33:22.077Z,19.90
2022-08-30T19:35:51.296Z,19.80
2022-08-30T19:38:18.934Z,19.80
2022-08-30T19:40:51.032Z,19.70
2022-08-30T19:43:20.646Z,19.70
2022-08-30T19:45:53.260Z,19.70
2022-08-30T19:48:22.221Z,19.60
2022-08-30T19:50:49.327Z,19.60
2022-08-30T19:53:16.569Z,19.60
2022-08-30T19:55:44.846Z,19.60
2022-08-30T19:58:11.792Z,19.50
2022-08-30T20:00:39.275Z,19.50
2022-08-30T20:03:19.954Z,19.50
2022-08-30T20:05:47.123Z,19.50
2022-08-30T20:08:14.093Z,19.50
2022-08-30T20:10:43.907Z,19.40
2022-08-30T20:13:10.971Z,19.40
2022-08-30T20:15:37.918Z,19.40
2022-08-30T20:18:05.737Z,19.30
2022-08-30T20:20:40.026Z,19.30
2022-08-30T20:23:06.737Z,19.20
2022-08-30T20:25:35.078Z,19.30
2022-08-30T20:28:02.093Z,19.20
2022-08-30T20:30:28.812Z,19.20
2022-08-30T20:32:56.758Z,19.20
2022-08-30T20:35:24.508Z,19.10
2022-08-30T20:37:51.301Z,19.10
2022-08-30T20:40:20.593Z,19.10
2022-08-30T20:42:47.898Z,19.10
2022-08-30T20:45:17.394Z,19.10
2022-08-30T20:47:44.398Z,19.00
2022-08-30T20:50:14.100Z,19.00
2022-08-30T20:52:41.874Z,18.90
2022-08-30T20:55:10.341Z,18.90
2022-08-30T20:57:37.138Z,18.90
2022-08-30T21:00:08.101Z,18.80
2022-08-30T21:02:37.181Z,18.80
2022-08-30T21:05:16.372Z,18.80
2022-08-30T21:07:45.743Z,18.70
2022-08-30T21:10:13.476Z,18.70
2022-08-30T21:12:43.358Z,18.70
2022-08-30T21:15:33.983Z,18.60
2022-08-30T21:17:57.956Z,18.60
2022-08-30T21:20:24.819Z,18.60
2022-08-30T21:22:51.524Z,18.50
2022-08-30T21:25:18.953Z,18.50
2022-08-30T21:27:45.652Z,18.50
2022-08-30T21:30:13.679Z,18.50
2022-08-30T21:32:41.256Z,18.40
2022-08-30T21:35:27.822Z,18.30
2022-08-30T21:37:55.390Z,18.30
2022-08-30T21:40:22.312Z,18.30
2022-08-30T21:42:49.177Z,18.20
2022-08-30T21:45:16.000Z,18.20
2022-08-30T21:47:42.917Z,18.20
2022-08-30T21:50:10.033Z,18.10
2022-08-30T21:52:36.756Z,18.10
2022-08-30T21:55:04.325Z,18.00
2022-08-30T21:57:31.216Z,18.00
2022-08-30T21:59:57.886Z,18.00
2022-08-30T22:02:24.778Z,18.00
2022-08-30T22:04:51.459Z,17.90
2022-08-30T22:07:18.216Z,17.90
2022-08-30T22:09:44.947Z,17.90
2022-08-30T22:12:11.912Z,17.80
2022-08-30T22:14:38.709Z,17.80
2022-08-30T22:17:05.739Z,17.80
2022-08-30T22:19:33.798Z,17.70
2022-08-30T22:22:01.843Z,17.70
2022-08-30T22:24:32.276Z,17.80
2022-08-30T22:27:01.256Z,17.70
2022-08-30T22:29:28.878Z,17.70
2022-08-30T22:31:55.791Z,17.60
2022-08-30T22:34:23.003Z,17.60
2022-08-30T22:36:50.048Z,17.60
2022-08-30T22:39:16.927Z,17.50
2022-08-30T22:41:44.508Z,17.50
2022-08-30T22:44:11.867Z,17.50
2022-08-30T22:46:38.892Z,17.50
2022-08-30T22:49:08.107Z,17.50
2022-08-30T22:51:35.767Z,17.40
2022-08-30T22:54:04.655Z,17.30
2022-08-30T22:56:33.449Z,17.30
2022-08-30T22:59:00.275Z,17.30
2022-08-30T23:01:32.417Z,17.30
2022-08-30T23:04:00.932Z,17.30
2022-08-30T23:06:28.268Z,17.20
2022-08-30T23:08:55.295Z,17.20
2022-08-30T23:11:22.192Z,17.20
2022-08-30T23:13:48.883Z,17.10
2022-08-30T23:16:16.947Z,17.10
2022-08-30T23:18:45.307Z,17.10
2022-08-30T23:21:21.719Z,17.00
2022-08-30T23:24:08.260Z,16.90
2022-08-30T23:26:54.055Z,17.00
2022-08-30T23:29:39.516Z,16.90
2022-08-30T23:32:25.031Z,16.90
2022-08-30T23:35:10.462Z,16.90
2022-08-30T23:37:55.857Z,16.90
2022-08-30T23:40:41.576Z,16.80
2022-08-30T23:43:27.812Z,16.70
2022-08-30T23:46:19.097Z,16.70
2022-08-30T23:49:08.739Z,16.70
2022-08-30T23:51:55.813Z,16.70
2022-08-30T23:54:41.896Z,16.70
2022-08-30T23:57:27.283Z,16.60
